createdAt,value
2023-03-23T15:58:55.606Z,12.36
2023-03-23T16:04:01.273Z,12.47
2023-03-23T16:09:05.253Z,12.07
2023-03-23T16:14:09.421Z,12.26
2023-03-23T16:19:13.985Z,12.29
2023-03-23T16:24:16.732Z,12.33
2023-03-23T16:29:40.165Z,12.34
2023-03-23T16:34:43.632Z,12.38
2023-03-23T16:39:46.324Z,12.34
2023-03-23T16:44:50.955Z,12.38
2023-03-23T16:49:54.051Z,12.38
2023-03-23T16:54:56.870Z,12.44
2023-03-23T17:00:00.940Z,12.39
2023-03-23T17:05:03.932Z,12.34
2023-03-23T17:10:07.888Z,12.31
2023-03-23T17:15:13.209Z,12.11
2023-03-23T17:20:16.855Z,11.94
2023-03-23T17:25:19.798Z,11.89
2023-03-23T17:30:23.910Z,11.71
2023-03-23T17:35:26.684Z,11.68
2023-03-23T17:40:29.448Z,11.66
2023-03-23T17:45:33.587Z,11.52
2023-03-23T17:50:36.674Z,11.48
2023-03-23T17:55:40.923Z,11.41
2023-03-23T18:00:45.229Z,11.33
2023-03-23T18:05:48.014Z,11.32
2023-03-23T18:10:50.715Z,11.23
2023-03-23T18:15:55.243Z,11.19
2023-03-23T18:20:59.065Z,11.14
2023-03-23T18:26:01.935Z,11.08
2023-03-23T18:31:08.190Z,10.99
2023-03-23T18:36:11.268Z,10.99
2023-03-23T18:41:14.893Z,10.89
2023-03-23T18:46:19.294Z,10.82
2023-03-23T18:51:22.232Z,10.82
2023-03-23T18:56:25.514Z,10.74
2023-03-23T19:01:29.828Z,10.74
2023-03-23T19:06:33.782Z,10.67
2023-03-23T19:11:43.879Z,10.59
2023-03-23T19:16:58.190Z,10.52
2023-03-23T19:22:01.147Z,10.51
2023-03-23T19:27:03.867Z,10.40
2023-03-23T19:32:09.337Z,10.40
2023-03-23T19:37:12.077Z,10.37
2023-03-23T19:42:18.058Z,10.32
2023-03-23T19:47:22.609Z,10.32
2023-03-23T19:52:25.719Z,10.31
2023-03-23T19:57:29.466Z,10.28
2023-03-23T20:02:33.966Z,10.30
2023-03-23T20:07:40.788Z,10.25
2023-03-23T20:12:44.517Z,10.26
2023-03-23T20:17:48.570Z,10.23
2023-03-23T20:22:53.453Z,10.21
2023-03-23T20:27:58.161Z,10.20
2023-03-23T20:33:02.319Z,10.16
2023-03-23T20:38:05.096Z,10.15
2023-03-23T20:43:10.782Z,10.13
2023-03-23T20:48:16.773Z,10.12
2023-03-23T20:53:20.380Z,10.10
2023-03-23T20:58:23.213Z,10.15
2023-03-23T21:03:28.673Z,10.15
2023-03-23T21:08:32.327Z,10.16
2023-03-23T21:13:35.193Z,10.12
2023-03-23T21:18:39.531Z,10.27
2023-03-23T21:23:46.528Z,10.35
2023-03-23T21:28:50.690Z,10.27
2023-03-23T21:33:54.833Z,10.25
2023-03-23T21:38:58.044Z,10.48
2023-03-23T21:44:00.930Z,10.58
2023-03-23T21:49:05.899Z,10.51
2023-03-23T21:54:09.074Z,10.61
2023-03-23T21:59:11.989Z,10.72
2023-03-23T22:04:17.041Z,10.68
2023-03-23T22:09:19.950Z,10.84
2023-03-23T22:14:23.146Z,10.78
2023-03-23T22:19:27.490Z,10.88
2023-03-23T22:24:30.181Z,10.99
2023-03-23T22:29:32.909Z,10.94
2023-03-23T22:34:37.014Z,11.03
2023-03-23T22:39:39.723Z,11.13
2023-03-23T22:44:42.505Z,11.05
2023-03-23T22:49:46.766Z,11.16
2023-03-23T22:54:49.681Z,11.15
2023-03-23T22:59:52.480Z,11.03
2023-03-23T23:04:57.723Z,11.10
2023-03-23T23:10:00.629Z,11.01
2023-03-23T23:15:03.763Z,10.97
2023-03-23T23:20:12.802Z,11.00
2023-03-23T23:25:15.453Z,11.12
2023-03-23T23:30:18.299Z,11.13
2023-03-23T23:35:22.774Z,11.04
2023-03-23T23:40:25.578Z,10.99
2023-03-23T23:45:28.905Z,11.08
2023-03-23T23:50:33.194Z,10.98
2023-03-23T23:55:35.960Z,11.16
